Time;durP1;ratioP1;P1;durP2;ratioP2;P2;SDS_P1;SDS_P2;PMS_P1;PMS_P2;Temp;Humidity;BMP_temperature;BMP_pressure;BME280_temperature;BME280_humidity;BME280_pressure;Samples;Min_cycle;Max_cycle;Signal;HPM_P1;HPM_P2
2021/01/11 00:00:14;;;;;;;12.63;6.20;;;;;;;19.14;31.32;98902.22;4950827;28;20234;-71
2021/01/11 00:02:40;;;;;;;14.87;7.77;;;;;;;18.91;29.84;98899.66;4951644;28;20233;-69
2021/01/11 00:05:07;;;;;;;14.47;8.07;;;;;;;18.86;29.80;98902.66;4950659;28;20229;-70
2021/01/11 00:07:33;;;;;;;13.77;7.73;;;;;;;18.86;30.53;98905.31;4951141;28;20550;-70
2021/01/11 00:09:59;;;;;;;12.57;7.27;;;;;;;18.88;29.91;98902.53;4949818;28;20223;-69
2021/01/11 00:12:25;;;;;;;14.07;8.33;;;;;;;18.90;29.75;98903.28;4951272;28;20240;-70
2021/01/11 00:14:51;;;;;;;17.83;8.40;;;;;;;18.82;30.10;98905.69;4951900;28;20207;-70
2021/01/11 00:17:18;;;;;;;13.80;7.73;;;;;;;18.78;30.27;98907.72;4951088;28;20203;-70
2021/01/11 00:19:44;;;;;;;14.63;8.07;;;;;;;18.60;30.24;98906.56;4951219;28;20231;-71
2021/01/11 00:22:10;;;;;;;16.20;8.70;;;;;;;18.68;30.08;98899.72;4954731;28;20614;-70
2021/01/11 00:24:37;;;;;;;14.13;7.97;;;;;;;18.65;30.03;98905.25;4955266;28;20202;-70
2021/01/11 00:27:03;;;;;;;14.33;8.10;;;;;;;18.71;30.53;98900.41;4954340;28;20226;-69
2021/01/11 00:29:29;;;;;;;14.53;7.93;;;;;;;18.72;30.05;98900.28;4955086;28;20225;-70
2021/01/11 00:31:57;;;;;;;14.40;8.10;;;;;;;18.70;30.02;98896.91;4973286;28;20328;-70
2021/01/11 00:34:24;;;;;;;15.13;8.10;;;;;;;18.73;29.77;98896.66;4954489;28;20253;-70
2021/01/11 00:36:58;;;;;;;17.67;8.10;;;;;;;19.01;30.09;98900.56;4956232;28;20206;-70
2021/01/11 00:39:26;;;;;;;13.37;7.63;;;;;;;19.13;29.34;98892.56;4956238;28;20277;-70
2021/01/11 00:41:56;;;;;;;14.80;7.87;;;;;;;19.03;29.01;98897.78;4955771;28;20280;-70
2021/01/11 00:44:23;;;;;;;13.00;7.77;;;;;;;19.04;29.51;98895.03;4956129;28;20585;-70
2021/01/11 00:46:49;;;;;;;14.07;8.10;;;;;;;19.15;29.04;98891.50;4953939;28;20277;-69
2021/01/11 00:49:15;;;;;;;15.03;8.57;;;;;;;19.49;28.83;98893.97;4954166;28;20706;-70
2021/01/11 00:51:42;;;;;;;16.67;8.33;;;;;;;19.69;29.68;98896.72;4953610;28;20286;-70
2021/01/11 00:54:08;;;;;;;18.77;8.53;;;;;;;19.69;28.60;98886.13;4953858;28;20199;-70
2021/01/11 00:56:34;;;;;;;16.20;8.67;;;;;;;19.68;28.79;98893.22;4952473;28;20246;-70
2021/01/11 00:59:00;;;;;;;14.87;8.07;;;;;;;19.83;29.04;98884.97;4953470;28;20250;-68
2021/01/11 01:01:27;;;;;;;18.53;8.00;;;;;;;19.68;29.09;98897.69;4951096;28;20205;-70
2021/01/11 01:03:53;;;;;;;13.43;7.97;;;;;;;19.66;28.76;98899.66;4952816;28;20301;-70
2021/01/11 01:06:20;;;;;;;15.33;8.60;;;;;;;19.54;28.57;98891.75;4952605;28;20226;-69
2021/01/11 01:08:47;;;;;;;16.13;8.80;;;;;;;19.49;28.76;98898.44;4954870;28;20282;-70
2021/01/11 01:11:13;;;;;;;14.43;8.30;;;;;;;19.47;29.04;98903.00;4953211;28;20207;-69
2021/01/11 01:13:39;;;;;;;15.07;8.77;;;;;;;19.33;29.50;98902.34;4953122;28;20646;-70
2021/01/11 01:16:05;;;;;;;15.43;8.33;;;;;;;19.55;28.83;98892.59;4954292;28;20699;-70
2021/01/11 01:18:32;;;;;;;13.13;7.17;;;;;;;19.62;29.71;98895.56;4953015;28;20258;-70
2021/01/11 01:20:58;;;;;;;16.63;7.93;;;;;;;19.47;29.32;98893.25;4952345;28;20228;-70
2021/01/11 01:23:25;;;;;;;17.00;8.80;;;;;;;19.52;28.74;98891.06;4953807;28;20212;-70
2021/01/11 01:25:52;;;;;;;16.20;8.90;;;;;;;19.46;29.97;98898.69;4954385;28;20743;-67
2021/01/11 01:28:18;;;;;;;14.80;8.53;;;;;;;19.37;28.58;98897.66;4952872;28;20275;-69
2021/01/11 01:30:44;;;;;;;13.80;7.93;;;;;;;19.34;29.28;98903.22;4952801;28;20642;-68
2021/01/11 01:33:11;;;;;;;15.83;8.67;;;;;;;19.36;28.72;98902.09;4952936;28;20207;-70
2021/01/11 01:35:37;;;;;;;15.83;8.83;;;;;;;19.18;30.10;98906.28;4954137;28;20313;-69
2021/01/11 01:38:03;;;;;;;15.00;8.03;;;;;;;19.13;29.39;98909.31;4952555;28;20221;-71
2021/01/11 01:40:29;;;;;;;14.70;8.57;;;;;;;19.25;29.06;98911.91;4951669;28;20229;-69
2021/01/11 01:42:56;;;;;;;17.00;8.70;;;;;;;18.99;29.01;98906.97;4952497;28;20229;-68
2021/01/11 01:45:22;;;;;;;18.03;8.33;;;;;;;18.89;29.57;98906.88;4953846;28;20594;-69
2021/01/11 01:47:48;;;;;;;14.70;8.13;;;;;;;19.09;30.15;98907.91;4951540;28;20226;-70
2021/01/11 01:50:16;;;;;;;14.73;8.43;;;;;;;18.92;29.87;98913.72;4952230;28;20311;-70
2021/01/11 01:52:44;;;;;;;12.93;7.67;;;;;;;19.08;30.33;98906.19;4952902;28;20234;-69
2021/01/11 01:55:12;;;;;;;14.90;7.60;;;;;;;19.05;29.54;98906.44;4953643;28;20298;-70
2021/01/11 01:57:39;;;;;;;14.13;7.40;;;;;;;19.06;29.55;98910.78;4951417;28;20302;-70
2021/01/11 02:00:07;;;;;;;15.93;8.40;;;;;;;19.12;30.18;98909.44;4953069;28;20368;-70
2021/01/11 02:02:34;;;;;;;14.23;7.73;;;;;;;19.14;29.28;98916.31;4953680;28;20206;-69
2021/01/11 02:05:00;;;;;;;14.67;8.53;;;;;;;19.21;29.55;98909.50;4952234;28;20210;-69
2021/01/11 02:07:33;;;;;;;16.03;8.60;;;;;;;19.24;30.07;98908.44;4952217;28;20265;-69
2021/01/11 02:10:06;;;;;;;14.80;8.63;;;;;;;19.28;29.52;98909.00;4952686;28;20235;-70
2021/01/11 02:12:44;;;;;;;15.83;8.87;;;;;;;19.13;29.48;98898.72;4952926;28;20346;-70
2021/01/11 02:15:14;;;;;;;15.23;9.07;;;;;;;19.16;29.40;98900.28;4955212;28;20206;-70
2021/01/11 02:17:46;;;;;;;14.60;8.43;;;;;;;19.17;28.65;98894.03;4953018;28;20215;-70
2021/01/11 02:20:43;;;;;;;23.87;9.70;;;;;;;19.26;28.33;98897.72;4953762;28;20655;-70
2021/01/11 02:23:35;;;;;;;13.57;7.77;;;;;;;19.21;29.13;98898.91;4953919;28;20209;-70
2021/01/11 02:26:09;;;;;;;13.23;7.97;;;;;;;19.32;29.01;98892.72;4952061;28;20234;-70
2021/01/11 02:28:54;;;;;;;17.50;9.07;;;;;;;19.28;28.17;98886.00;4953386;28;20222;-70
2021/01/11 02:31:24;;;;;;;15.70;8.40;;;;;;;19.10;28.90;98888.41;4954537;28;20663;-70
2021/01/11 02:33:53;;;;;;;14.83;8.17;;;;;;;19.17;28.85;98888.72;4953254;28;20211;-70
2021/01/11 02:36:21;;;;;;;15.87;8.90;;;;;;;19.24;29.77;98876.63;4952947;28;20297;-69
2021/01/11 02:38:48;;;;;;;15.77;8.33;;;;;;;19.33;28.96;98880.31;4951888;28;20616;-69
2021/01/11 02:41:14;;;;;;;14.97;8.30;;;;;;;19.23;28.53;98891.69;4952020;28;20213;-69
2021/01/11 02:43:41;;;;;;;17.23;8.70;;;;;;;19.21;29.37;98890.97;4951783;28;20206;-68
2021/01/11 02:46:07;;;;;;;16.60;9.00;;;;;;;19.28;29.14;98885.16;4952817;28;20329;-69
2021/01/11 02:48:38;;;;;;;18.07;8.63;;;;;;;19.29;28.79;98879.72;4952407;28;20739;-70
2021/01/11 02:51:14;;;;;;;17.97;9.40;;;;;;;19.32;28.86;98876.81;4952466;28;20220;-70
2021/01/11 02:53:54;;;;;;;17.70;9.23;;;;;;;19.03;28.98;98871.31;4952693;28;20234;-69
2021/01/11 02:56:30;;;;;;;16.90;8.33;;;;;;;18.96;28.46;98875.44;4952682;28;20573;-69
2021/01/11 02:59:06;;;;;;;14.70;8.33;;;;;;;18.99;28.25;98875.19;4933422;29;20223;-70
2021/01/11 03:01:38;;;;;;;16.70;9.23;;;;;;;18.86;28.82;98876.19;4933372;29;20304;-69
2021/01/11 03:04:07;;;;;;;20.70;8.67;;;;;;;18.60;28.51;98878.31;4933879;29;20207;-69
2021/01/11 03:06:34;;;;;;;16.10;8.87;;;;;;;18.72;29.31;98876.47;4932892;29;20774;-69
2021/01/11 03:09:05;;;;;;;18.40;8.67;;;;;;;18.68;29.92;98888.25;4932086;29;20293;-69
2021/01/11 03:11:34;;;;;;;14.67;8.50;;;;;;;18.84;29.10;98886.06;4932882;29;20234;-66
2021/01/11 03:14:01;;;;;;;14.13;8.10;;;;;;;18.53;29.08;98885.03;4934932;29;20219;-69
2021/01/11 03:16:27;;;;;;;15.70;9.30;;;;;;;18.44;28.94;98886.63;4950333;28;20225;-66
2021/01/11 03:18:53;;;;;;;13.50;8.30;;;;;;;18.58;29.02;98882.03;4949377;28;20230;-69
2021/01/11 03:21:20;;;;;;;14.97;8.43;;;;;;;18.62;29.64;98876.38;4952057;28;20209;-70
2021/01/11 03:23:46;;;;;;;16.07;8.23;;;;;;;18.70;29.83;98870.41;4953637;28;20301;-69
2021/01/11 03:26:12;;;;;;;15.23;8.23;;;;;;;18.73;29.05;98875.47;4952474;28;20230;-69
2021/01/11 03:28:38;;;;;;;16.87;8.77;;;;;;;18.34;29.37;98877.75;4952203;28;20686;-69
2021/01/11 03:31:07;;;;;;;15.43;8.63;;;;;;;18.25;29.47;98873.19;4955425;28;20284;-66
2021/01/11 03:33:33;;;;;;;16.87;9.03;;;;;;;18.46;29.78;98874.09;4954370;28;20206;-69
2021/01/11 03:36:00;;;;;;;14.43;7.90;;;;;;;18.52;30.64;98877.22;4953651;28;20198;-69
2021/01/11 03:38:26;;;;;;;15.80;8.30;;;;;;;18.35;28.99;98881.22;4950826;28;20652;-70
2021/01/11 03:41:00;;;;;;;20.73;9.17;;;;;;;18.48;29.03;98884.56;4950913;28;20202;-69
2021/01/11 03:43:26;;;;;;;14.70;7.97;;;;;;;18.53;29.59;98878.91;4951303;28;20595;-69
2021/01/11 03:45:52;;;;;;;16.13;8.33;;;;;;;18.48;29.30;98889.88;4952716;28;20230;-65
2021/01/11 03:48:19;;;;;;;18.03;9.13;;;;;;;18.40;29.63;98887.84;4951001;28;20210;-62
2021/01/11 03:50:45;;;;;;;14.67;8.07;;;;;;;18.33;31.02;98878.69;4951476;28;20210;-69
2021/01/11 03:53:11;;;;;;;14.57;8.27;;;;;;;18.63;30.68;98869.25;4951188;28;20641;-69
2021/01/11 03:55:40;;;;;;;13.33;7.87;;;;;;;18.77;30.70;98870.75;4953579;28;20199;-69
2021/01/11 03:58:06;;;;;;;14.10;8.70;;;;;;;18.80;29.40;98876.69;4955519;28;20254;-69
2021/01/11 04:00:32;;;;;;;12.67;7.90;;;;;;;18.81;29.56;98880.97;4955395;28;20659;-69
2021/01/11 04:02:58;;;;;;;15.00;8.90;;;;;;;18.63;29.33;98869.25;4953591;28;20217;-69
2021/01/11 04:05:25;;;;;;;15.23;8.27;;;;;;;18.71;30.01;98877.41;4953945;28;20598;-69
2021/01/11 04:07:51;;;;;;;17.37;8.87;;;;;;;18.68;30.22;98870.56;4955538;28;20251;-70
2021/01/11 04:10:17;;;;;;;14.93;8.33;;;;;;;18.74;30.00;98882.47;4953822;28;20230;-69
2021/01/11 04:12:44;;;;;;;14.47;8.03;;;;;;;18.72;29.69;98879.09;4952286;28;20202;-69
2021/01/11 04:15:10;;;;;;;14.77;8.00;;;;;;;18.82;29.40;98885.31;4953557;28;20225;-69
2021/01/11 04:17:37;;;;;;;14.03;7.90;;;;;;;18.75;30.45;98881.50;4954526;28;20289;-69
2021/01/11 04:20:03;;;;;;;14.57;8.80;;;;;;;18.94;29.30;98880.03;4954307;28;20223;-70
2021/01/11 04:22:29;;;;;;;14.57;8.00;;;;;;;18.85;28.34;98890.41;4953087;28;20237;-69
2021/01/11 04:24:55;;;;;;;15.47;8.43;;;;;;;18.84;28.66;98885.25;4953985;28;20209;-68
2021/01/11 04:27:22;;;;;;;14.23;7.70;;;;;;;18.97;28.86;98888.56;4953537;28;20242;-65
2021/01/11 04:29:49;;;;;;;15.97;7.80;;;;;;;18.82;28.44;98893.28;4953270;28;20227;-69
2021/01/11 04:32:15;;;;;;;13.97;7.53;;;;;;;18.84;29.84;98887.88;4954873;28;20210;-69
2021/01/11 04:34:41;;;;;;;12.27;7.47;;;;;;;18.79;29.31;98892.69;4954858;28;20213;-69
2021/01/11 04:37:07;;;;;;;16.97;8.53;;;;;;;18.53;29.64;98889.50;4953618;28;20208;-68
2021/01/11 04:39:34;;;;;;;18.37;8.33;;;;;;;18.31;28.88;98891.22;4954929;28;20222;-66
2021/01/11 04:42:01;;;;;;;13.07;7.73;;;;;;;18.44;29.31;98891.91;4953955;28;20625;-69
2021/01/11 04:44:29;;;;;;;13.77;8.23;;;;;;;18.59;28.42;98895.13;4953952;28;20433;-69
2021/01/11 04:46:56;;;;;;;14.87;8.30;;;;;;;18.56;28.67;98894.56;4955085;28;20285;-69
2021/01/11 04:49:22;;;;;;;14.17;7.53;;;;;;;18.54;28.91;98897.31;4954544;28;20223;-69
2021/01/11 04:51:49;;;;;;;17.47;8.33;;;;;;;18.82;30.10;98895.94;4952499;28;20264;-69
2021/01/11 04:54:18;;;;;;;13.73;7.80;;;;;;;18.98;27.90;98895.53;4954078;28;20346;-70
2021/01/11 04:56:47;;;;;;;15.67;8.30;;;;;;;18.96;27.88;98902.75;4954824;28;20203;-69
2021/01/11 04:59:18;;;;;;;12.63;7.67;;;;;;;19.01;28.39;98897.91;4954964;28;20289;-69
2021/01/11 05:01:48;;;;;;;15.17;8.17;;;;;;;19.06;28.03;98897.53;4953988;28;20198;-69
2021/01/11 05:04:15;;;;;;;14.37;8.13;;;;;;;19.07;28.05;98888.66;4954861;28;20316;-69
2021/01/11 05:06:45;;;;;;;13.60;7.83;;;;;;;18.88;27.35;98885.81;4953744;28;20226;-69
2021/01/11 05:09:13;;;;;;;15.90;8.40;;;;;;;18.98;28.70;98889.38;4953913;28;20258;-69
2021/01/11 05:11:39;;;;;;;15.20;8.20;;;;;;;18.98;28.01;98879.63;4954004;28;20652;-69
2021/01/11 05:14:05;;;;;;;16.23;8.93;;;;;;;19.02;27.64;98877.59;4952747;28;20306;-69
2021/01/11 05:16:31;;;;;;;16.47;8.07;;;;;;;19.04;27.77;98875.66;4952966;28;20393;-69
2021/01/11 05:19:23;;;;;;;15.40;7.37;;;;;;;19.14;28.12;98884.50;4951454;28;20222;-69
2021/01/11 05:21:50;;;;;;;14.40;8.30;;;;;;;19.19;28.37;98877.00;4954393;28;20207;-70
2021/01/11 05:24:45;;;;;;;17.33;9.53;;;;;;;18.96;28.29;98883.38;4953458;28;20210;-70
2021/01/11 05:27:12;;;;;;;14.03;8.07;;;;;;;19.05;28.27;98882.59;4932319;28;20691;-68
2021/01/11 05:29:39;;;;;;;15.30;8.20;;;;;;;18.97;28.24;98883.25;4952429;28;20235;-69
2021/01/11 05:32:07;;;;;;;14.73;8.37;;;;;;;19.08;27.87;98885.00;4953059;28;20206;-69
2021/01/11 05:34:47;;;;;;;15.83;8.70;;;;;;;19.22;27.85;98889.19;4953968;28;20315;-68
2021/01/11 05:37:31;;;;;;;16.03;8.77;;;;;;;19.11;27.81;98890.06;4954146;28;20209;-69
2021/01/11 05:40:06;;;;;;;13.17;7.67;;;;;;;19.08;27.71;98887.66;4953219;28;20227;-70
2021/01/11 05:42:32;;;;;;;15.57;8.00;;;;;;;19.10;27.78;98883.09;4953584;28;20296;-70
2021/01/11 05:45:13;;;;;;;14.67;8.37;;;;;;;19.08;27.66;98882.34;4952847;28;20211;-70
2021/01/11 05:48:04;;;;;;;15.57;8.10;;;;;;;19.12;28.11;98883.78;4955218;28;20317;-70
2021/01/11 05:50:32;;;;;;;19.23;8.27;;;;;;;19.15;28.27;98888.00;4952837;28;20310;-70
2021/01/11 05:52:59;;;;;;;16.20;8.07;;;;;;;19.13;27.81;98898.72;4954829;28;20260;-70
2021/01/11 05:55:26;;;;;;;16.57;8.77;;;;;;;19.12;27.93;98905.00;4955944;28;20222;-70
2021/01/11 05:57:56;;;;;;;17.07;8.53;;;;;;;19.04;28.09;98902.13;4954427;28;20253;-70
2021/01/11 06:00:24;;;;;;;16.80;8.13;;;;;;;19.19;27.83;98900.84;4954496;28;20234;-70
2021/01/11 06:02:50;;;;;;;14.07;7.97;;;;;;;19.17;27.78;98902.81;4954311;28;20555;-71
2021/01/11 06:05:17;;;;;;;15.03;8.60;;;;;;;19.14;27.77;98905.72;4952934;28;20683;-71
2021/01/11 06:07:45;;;;;;;21.10;9.67;;;;;;;19.12;27.17;98896.19;4952530;28;20234;-70
2021/01/11 06:10:13;;;;;;;18.77;9.60;;;;;;;19.04;27.03;98905.63;4951971;28;20314;-69
2021/01/11 06:12:39;;;;;;;19.63;9.73;;;;;;;18.96;27.54;98904.56;4951650;28;20579;-70
2021/01/11 06:15:09;;;;;;;16.83;8.10;;;;;;;18.94;27.71;98899.41;4953152;28;20694;-70
2021/01/11 06:17:35;;;;;;;24.90;9.53;;;;;;;18.96;27.58;98896.63;4949637;28;20206;-70
2021/01/11 06:20:01;;;;;;;17.07;9.07;;;;;;;18.66;27.69;98895.47;4953292;28;20222;-69
2021/01/11 06:23:02;;;;;;;17.33;9.47;;;;;;;18.97;28.20;98888.56;4951812;28;20301;-69
2021/01/11 06:25:36;;;;;;;20.83;9.17;;;;;;;18.90;28.43;98887.38;4954770;28;20297;-70
2021/01/11 06:28:05;;;;;;;17.73;8.67;;;;;;;18.95;28.51;98885.19;4952684;28;20289;-70
2021/01/11 06:30:39;;;;;;;19.77;3.92;;;;;;;20.19;36.95;98880.94;4953697;28;20309;-70
2021/01/11 06:33:07;;;;;;;15.80;5.05;;;;;;;20.80;36.17;98877.31;4953838;28;20216;-70
2021/01/11 06:35:33;;;;;;;16.13;4.60;;;;;;;20.91;37.26;98881.66;4953331;28;20309;-69
2021/01/11 06:38:18;;;;;;;13.05;4.68;;;;;;;21.12;36.21;98876.19;4952122;28;20211;-70
2021/01/11 06:40:46;;;;;;;11.20;3.78;;;;;;;21.46;36.14;98885.53;4952635;28;20265;-70
2021/01/11 06:43:14;;;;;;;14.68;4.68;;;;;;;21.37;37.36;98881.91;4952690;28;20678;-71
2021/01/11 06:45:41;;;;;;;24.42;4.05;;;;;;;21.77;37.90;98880.88;4951461;28;20251;-71
2021/01/11 06:48:09;;;;;;;8.40;3.10;;;;;;;21.84;37.77;98873.16;4952727;28;20257;-72
2021/01/11 06:50:35;;;;;;;13.50;3.15;;;;;;;22.01;38.34;98879.53;4952742;28;20646;-69
2021/01/11 06:53:03;;;;;;;13.23;3.63;;;;;;;22.00;38.30;98878.69;4951772;28;20281;-71
2021/01/11 06:55:30;;;;;;;12.57;2.95;;;;;;;22.16;38.69;98872.72;4951516;28;20341;-71
2021/01/11 06:57:59;;;;;;;8.48;3.63;;;;;;;22.17;38.41;98874.41;4951312;28;20293;-71
2021/01/11 07:00:36;;;;;;;9.57;3.47;;;;;;;22.45;38.90;98872.59;4952275;28;20340;-71
2021/01/11 07:03:04;;;;;;;11.63;3.13;;;;;;;22.62;38.95;98883.44;4952459;28;20211;-71
2021/01/11 07:05:38;;;;;;;21.90;3.60;;;;;;;22.89;38.32;98879.88;4952098;28;20569;-71
2021/01/11 07:08:05;;;;;;;11.88;3.08;;;;;;;22.86;38.01;98883.66;4952288;28;20305;-71
2021/01/11 07:10:33;;;;;;;10.73;3.38;;;;;;;22.97;37.69;98885.28;4951522;28;20254;-69
2021/01/11 07:13:24;;;;;;;12.32;3.40;;;;;;;22.99;37.10;98887.81;4952300;28;20294;-70
2021/01/11 07:16:23;;;;;;;11.52;3.45;;;;;;;23.39;36.25;98891.84;4952718;28;20658;-70
2021/01/11 07:18:53;;;;;;;12.07;3.67;;;;;;;23.20;36.18;98887.50;4952871;28;20230;-70
2021/01/11 07:21:22;;;;;;;12.68;4.45;;;;;;;23.42;35.35;98897.69;4952874;28;20207;-70
2021/01/11 07:23:49;;;;;;;11.48;3.95;;;;;;;23.19;34.64;98883.19;4951322;28;20355;-70
2021/01/11 07:26:17;;;;;;;8.55;3.65;;;;;;;23.04;36.05;98889.00;4953106;28;20800;-70
2021/01/11 07:28:55;;;;;;;8.60;3.80;;;;;;;22.97;35.29;98887.97;4951908;28;20222;-70
2021/01/11 07:31:23;;;;;;;5.63;3.00;;;;;;;23.14;36.50;98886.28;4955371;28;20221;-69
2021/01/11 07:34:03;;;;;;;7.13;3.38;;;;;;;23.00;36.59;98886.78;4954356;28;20214;-70
2021/01/11 07:36:34;;;;;;;6.90;2.70;;;;;;;23.11;35.92;98899.94;4952120;28;20202;-70
2021/01/11 07:39:18;;;;;;;14.70;3.70;;;;;;;23.08;36.47;98903.75;4952339;28;20262;-70
2021/01/11 07:41:47;;;;;;;8.38;2.90;;;;;;;23.08;37.23;98903.75;4952372;28;20222;-70
2021/01/11 07:44:22;;;;;;;5.55;2.80;;;;;;;23.13;36.23;98903.28;4951165;28;20222;-70
2021/01/11 07:46:56;;;;;;;9.45;3.10;;;;;;;23.56;36.98;98908.78;4951702;28;20229;-70
2021/01/11 07:49:22;;;;;;;6.80;2.70;;;;;;;23.70;36.15;98904.72;4950074;28;20265;-70
2021/01/11 07:51:50;;;;;;;6.57;2.70;;;;;;;23.85;37.16;98899.66;4950737;28;20293;-69
2021/01/11 07:54:17;;;;;;;7.80;2.78;;;;;;;23.93;36.03;98902.38;4951211;28;20726;-73
2021/01/11 07:56:46;;;;;;;7.88;2.90;;;;;;;24.03;36.14;98900.44;4951865;28;20282;-73
2021/01/11 07:59:12;;;;;;;11.48;3.20;;;;;;;24.00;34.94;98911.47;4952217;28;20295;-74
2021/01/11 08:01:40;;;;;;;9.95;3.45;;;;;;;24.01;35.85;98913.97;4951684;28;20238;-74
2021/01/11 08:04:07;;;;;;;8.32;2.88;;;;;;;23.98;35.93;98924.97;4951620;28;20249;-74
2021/01/11 08:06:44;;;;;;;6.97;2.83;;;;;;;24.01;35.63;98923.78;4951175;28;20313;-74
2021/01/11 08:09:12;;;;;;;7.95;3.13;;;;;;;23.95;36.39;98935.13;4951380;28;20301;-74
2021/01/11 08:11:38;;;;;;;17.30;2.85;;;;;;;24.13;37.42;98937.72;4950315;28;20238;-74
2021/01/11 08:14:06;;;;;;;10.02;3.45;;;;;;;24.22;37.20;98936.78;4951454;28;20257;-75
2021/01/11 08:16:33;;;;;;;7.70;2.88;;;;;;;24.13;37.65;98940.38;4952357;28;20245;-74
2021/01/11 08:19:04;;;;;;;14.93;2.75;;;;;;;24.08;38.27;98927.53;4951841;28;20223;-72
2021/01/11 08:21:30;;;;;;;7.60;3.17;;;;;;;24.04;37.33;98944.84;4949788;28;20234;-72
2021/01/11 08:24:00;;;;;;;11.55;3.28;;;;;;;24.10;36.52;98940.69;4951841;28;20287;-71
2021/01/11 08:26:28;;;;;;;15.63;4.35;;;;;;;24.18;38.01;98941.59;4951357;28;20326;-72
2021/01/11 08:28:57;;;;;;;8.98;3.33;;;;;;;24.26;37.25;98934.63;4950678;28;20250;-72
2021/01/11 08:31:27;;;;;;;7.35;3.40;;;;;;;24.31;37.90;98933.13;4950637;28;20230;-71
2021/01/11 08:33:54;;;;;;;10.68;3.20;;;;;;;24.22;37.83;98931.44;4951231;28;20203;-70
2021/01/11 08:36:22;;;;;;;6.00;2.72;;;;;;;24.35;37.36;98934.50;4949801;28;20198;-71
2021/01/11 08:39:18;;;;;;;10.05;2.83;;;;;;;24.27;37.15;98931.78;4947348;29;20301;-70
2021/01/11 08:41:48;;;;;;;7.80;2.95;;;;;;;24.39;37.23;98932.34;4952661;28;20643;-72
2021/01/11 08:44:29;;;;;;;7.38;2.75;;;;;;;24.49;37.41;98933.03;4948644;29;20195;-69
2021/01/11 08:47:08;;;;;;;9.70;2.00;;;;;;;24.68;37.39;98933.78;4954975;28;20456;-71
2021/01/11 08:49:36;;;;;;;10.00;3.33;;;;;;;24.61;37.19;98936.28;4954381;28;20237;-72
2021/01/11 08:52:12;;;;;;;5.60;2.30;;;;;;;24.59;37.12;98930.25;4950344;29;20202;-72
2021/01/11 08:54:39;;;;;;;9.07;2.60;;;;;;;24.47;37.61;98928.88;4953261;29;20206;-71
2021/01/11 08:57:10;;;;;;;5.72;2.65;;;;;;;24.49;36.30;98932.22;4953662;28;20265;-71
2021/01/11 08:59:37;;;;;;;8.25;2.50;;;;;;;24.49;36.33;98930.38;4954152;28;20230;-70
2021/01/11 09:02:03;;;;;;;4.60;2.45;;;;;;;24.47;36.76;98935.03;4952762;28;20203;-68
2021/01/11 09:04:31;;;;;;;5.50;2.10;;;;;;;24.59;37.56;98926.75;4953459;28;20234;-72
2021/01/11 09:07:02;;;;;;;7.00;2.35;;;;;;;24.62;37.44;98913.06;4953985;28;20301;-71
2021/01/11 09:09:30;;;;;;;14.20;2.58;;;;;;;24.52;37.32;98915.84;4955060;28;20258;-69
2021/01/11 09:12:01;;;;;;;13.38;2.50;;;;;;;24.31;37.72;98924.28;4955208;28;20551;-73
2021/01/11 09:14:28;;;;;;;5.40;2.13;;;;;;;24.27;36.87;98928.28;4954604;28;20203;-70
2021/01/11 09:16:57;;;;;;;10.77;2.45;;;;;;;24.54;37.24;98940.56;4953557;28;20206;-70
2021/01/11 09:19:23;;;;;;;19.30;3.15;;;;;;;24.50;37.51;98933.91;4953603;28;20230;-69
2021/01/11 09:22:05;;;;;;;19.20;3.35;;;;;;;24.68;36.23;98934.66;4952980;28;20301;-70
2021/01/11 09:24:32;;;;;;;12.63;3.30;;;;;;;24.82;36.46;98941.19;4954115;28;20226;-71
2021/01/11 09:26:58;;;;;;;8.20;2.30;;;;;;;24.83;37.25;98953.59;4954780;28;20230;-69
2021/01/11 09:29:25;;;;;;;12.20;2.47;;;;;;;24.61;36.07;98968.34;4952853;28;20354;-71
2021/01/11 09:31:52;;;;;;;14.00;2.55;;;;;;;24.55;36.30;98972.53;4955254;28;20238;-71
2021/01/11 09:34:19;;;;;;;11.43;3.05;;;;;;;24.48;35.97;98973.28;4953986;28;20249;-71
2021/01/11 09:36:45;;;;;;;11.43;2.95;;;;;;;24.41;36.21;98957.06;4952748;28;20290;-72
2021/01/11 09:39:14;;;;;;;9.32;2.13;;;;;;;24.67;36.40;98950.84;4951988;28;20226;-70
2021/01/11 09:41:46;;;;;;;10.80;2.72;;;;;;;24.86;35.86;98945.19;4953025;28;20281;-71
2021/01/11 09:44:12;;;;;;;6.95;1.95;;;;;;;24.92;35.98;98954.44;4953978;28;20721;-70
2021/01/11 09:46:46;;;;;;;9.38;2.28;;;;;;;25.00;35.25;98951.78;4954383;28;20231;-71
2021/01/11 09:49:13;;;;;;;5.03;2.83;;;;;;;24.95;35.38;98946.09;4954022;28;20227;-70
2021/01/11 09:51:40;;;;;;;4.97;2.38;;;;;;;24.96;35.11;98950.41;4952965;28;20248;-70
2021/01/11 09:54:07;;;;;;;5.95;2.53;;;;;;;24.92;35.03;98951.75;4951813;28;20212;-70
2021/01/11 09:56:35;;;;;;;7.05;1.95;;;;;;;24.92;35.88;98949.91;4952655;28;20682;-70
2021/01/11 09:59:01;;;;;;;7.90;2.70;;;;;;;24.67;35.53;98950.84;4952714;28;20305;-70
2021/01/11 10:01:38;;;;;;;6.38;2.30;;;;;;;24.58;35.52;98943.78;4952352;28;20238;-68
2021/01/11 10:04:04;;;;;;;7.40;2.55;;;;;;;24.61;36.31;98941.63;4954249;28;20274;-70
2021/01/11 10:06:38;;;;;;;4.80;2.58;;;;;;;24.47;36.34;98947.56;4951873;28;20257;-69
2021/01/11 10:09:04;;;;;;;7.97;2.50;;;;;;;24.43;35.99;98943.53;4952558;28;20260;-67
2021/01/11 10:11:31;;;;;;;6.38;2.35;;;;;;;24.39;36.31;98935.84;4951598;28;20207;-70
2021/01/11 10:13:58;;;;;;;7.22;2.67;;;;;;;24.30;36.37;98944.00;4952630;28;20211;-70
2021/01/11 10:16:24;;;;;;;8.35;2.33;;;;;;;24.13;35.80;98951.06;4954172;28;20202;-69
2021/01/11 10:18:50;;;;;;;2.85;1.80;;;;;;;24.16;37.25;98942.75;4951254;28;20700;-67
2021/01/11 10:21:16;;;;;;;8.00;2.28;;;;;;;24.20;37.04;98936.94;4952471;28;20223;-70
2021/01/11 10:23:43;;;;;;;7.07;1.60;;;;;;;24.24;36.39;98939.28;4951829;28;20678;-70
2021/01/11 10:26:15;;;;;;;3.90;2.22;;;;;;;24.22;35.37;98936.78;4951302;28;20265;-69
2021/01/11 10:28:41;;;;;;;3.10;2.25;;;;;;;24.24;35.97;98934.78;4954121;28;20218;-69
2021/01/11 10:31:08;;;;;;;5.85;2.28;;;;;;;24.28;36.76;98919.25;4959493;28;20202;-70
2021/01/11 10:33:35;;;;;;;19.63;2.47;;;;;;;24.43;36.80;98924.81;4971826;28;20673;-71
2021/01/11 10:36:01;;;;;;;7.63;2.00;;;;;;;24.42;35.62;98920.50;4970820;28;20210;-70
2021/01/11 10:38:27;;;;;;;9.52;1.83;;;;;;;24.46;36.58;98919.16;4972011;28;20237;-70
2021/01/11 10:40:53;;;;;;;2.95;1.88;;;;;;;24.51;35.66;98925.69;4971971;28;20241;-69
2021/01/11 10:43:20;;;;;;;9.95;2.65;;;;;;;24.62;35.62;98908.56;4970970;28;20209;-72
2021/01/11 10:45:46;;;;;;;7.93;2.28;;;;;;;24.63;36.28;98907.56;4960626;28;20202;-70
2021/01/11 10:48:13;;;;;;;4.88;1.48;;;;;;;24.58;35.69;98906.38;4952792;28;20238;-70
2021/01/11 10:50:39;;;;;;;5.70;2.30;;;;;;;24.52;35.88;98899.81;4950886;28;20211;-70
2021/01/11 10:53:07;;;;;;;6.18;2.30;;;;;;;24.58;35.86;98893.88;4952300;28;20297;-69
2021/01/11 10:55:33;;;;;;;6.68;2.17;;;;;;;24.50;35.73;98889.28;4952358;28;20210;-71
2021/01/11 10:58:00;;;;;;;5.78;1.90;;;;;;;24.59;35.75;98890.16;4950895;28;20245;-70
2021/01/11 11:00:27;;;;;;;4.57;1.40;;;;;;;24.49;36.77;98871.56;4951143;28;20305;-70
2021/01/11 11:02:53;;;;;;;3.58;2.08;;;;;;;24.39;36.67;98866.34;4950139;28;20210;-71
2021/01/11 11:05:20;;;;;;;4.18;1.85;;;;;;;24.45;36.65;98864.03;4951727;28;20251;-70
2021/01/11 11:07:46;;;;;;;5.50;2.58;;;;;;;24.50;36.41;98867.06;4951705;28;20226;-70
2021/01/11 11:10:13;;;;;;;5.97;2.28;;;;;;;24.50;35.89;98861.72;4952074;28;20746;-70
2021/01/11 11:12:42;;;;;;;8.15;2.20;;;;;;;24.53;36.20;98870.25;4952375;28;20670;-70
2021/01/11 11:15:09;;;;;;;5.30;2.00;;;;;;;24.43;36.11;98869.56;4952637;28;20269;-70
2021/01/11 11:17:35;;;;;;;6.03;2.00;;;;;;;24.45;36.28;98864.88;4952583;28;20670;-70
2021/01/11 11:20:03;;;;;;;6.50;1.92;;;;;;;24.44;36.40;98863.19;4952029;28;20303;-69
2021/01/11 11:22:30;;;;;;;5.70;2.10;;;;;;;24.44;36.48;98865.03;4950176;28;20207;-69
2021/01/11 11:24:56;;;;;;;18.98;2.38;;;;;;;24.49;36.81;98868.06;4952508;28;20657;-69
2021/01/11 11:27:22;;;;;;;6.95;2.10;;;;;;;24.35;37.52;98867.69;4951418;28;20248;-69
2021/01/11 11:29:51;;;;;;;12.50;2.60;;;;;;;24.30;37.41;98862.00;4951132;28;20333;-69
2021/01/11 11:32:17;;;;;;;7.07;1.95;;;;;;;24.46;37.45;98863.88;4953487;28;20202;-69
2021/01/11 11:34:43;;;;;;;4.45;1.60;;;;;;;24.48;37.23;98867.25;4952017;28;20289;-70